Time;durP1;ratioP1;P1;durP2;ratioP2;P2;SDS_P1;SDS_P2;PMS_P1;PMS_P2;Temp;Humidity;BMP_temperature;BMP_pressure;BME280_temperature;BME280_humidity;BME280_pressure;Samples;Min_cycle;Max_cycle;Signal;HPM_P1;HPM_P2
2021/05/19 00:02:11;;;;;;;0.00;0.00;;;10.70;99.90;;;;;;5092792;28;20195;-71
2021/05/19 00:04:37;;;;;;;0.03;0.03;;;10.60;99.90;;;;;;5111537;28;20179;-71
2021/05/19 00:07:03;;;;;;;0.00;0.00;;;10.60;99.90;;;;;;5111738;28;20174;-71
2021/05/19 00:09:29;;;;;;;0.10;0.10;;;10.50;99.90;;;;;;5093152;28;20196;-72
2021/05/19 00:11:55;;;;;;;0.10;0.10;;;10.60;99.90;;;;;;5111258;28;20746;-72
2021/05/19 00:14:21;;;;;;;15.98;0.75;;;10.60;99.90;;;;;;5110582;28;20163;-72
2021/05/19 00:16:49;;;;;;;0.93;0.85;;;10.60;99.90;;;;;;5109485;28;20215;-69
2021/05/19 00:19:16;;;;;;;0.10;0.10;;;10.70;99.90;;;;;;5088100;28;20199;-71
2021/05/19 00:21:42;;;;;;;0.00;0.00;;;10.60;99.90;;;;;;5110260;28;20724;-71
2021/05/19 00:24:09;;;;;;;0.00;0.00;;;10.60;99.90;;;;;;5110557;28;20185;-71
2021/05/19 00:26:35;;;;;;;0.10;0.10;;;10.60;99.90;;;;;;5110862;28;20685;-72
2021/05/19 00:29:02;;;;;;;0.10;0.10;;;10.60;99.90;;;;;;5110958;28;20160;-72
2021/05/19 00:31:32;;;;;;;0.10;0.10;;;10.50;99.90;;;;;;5110922;28;20170;-71
2021/05/19 00:33:59;;;;;;;0.10;0.10;;;10.40;99.90;;;;;;5110593;28;20156;-71
2021/05/19 00:36:25;;;;;;;0.10;0.10;;;10.30;99.90;;;;;;5092741;28;20194;-71
2021/05/19 00:38:53;;;;;;;0.35;0.35;;;10.30;99.90;;;;;;5110932;28;20193;-71
2021/05/19 00:41:19;;;;;;;0.25;0.25;;;10.20;99.90;;;;;;5088907;28;20242;-71
2021/05/19 00:43:45;;;;;;;0.10;0.10;;;10.20;99.90;;;;;;5090110;28;20620;-71
2021/05/19 00:46:11;;;;;;;0.10;0.10;;;10.20;99.90;;;;;;5088740;28;20179;-71
2021/05/19 00:48:38;;;;;;;0.10;0.10;;;10.10;99.90;;;;;;5088882;28;20172;-71
2021/05/19 00:51:05;;;;;;;0.10;0.10;;;10.20;99.90;;;;;;5090333;28;20187;-71
2021/05/19 00:53:31;;;;;;;0.10;0.10;;;10.20;99.90;;;;;;5089709;28;20215;-70
2021/05/19 00:55:57;;;;;;;0.10;0.10;;;10.20;99.90;;;;;;5089995;28;20215;-72
2021/05/19 00:58:23;;;;;;;0.08;0.08;;;10.10;99.90;;;;;;5088701;28;20251;-72
2021/05/19 01:00:50;;;;;;;0.00;0.00;;;10.10;99.90;;;;;;5089448;28;20203;-71
2021/05/19 01:03:15;;;;;;;0.10;0.10;;;10.10;99.90;;;;;;5089602;28;20156;-72
2021/05/19 01:06:03;;;;;;;0.38;0.38;;;10.20;99.90;;;;;;5089607;28;20159;-72
2021/05/19 01:11:15;;;;;;;0.10;0.10;;;10.20;99.90;;;;;;5089743;28;20723;-72
2021/05/19 01:13:44;;;;;;;0.00;0.00;;;10.30;99.90;;;;;;5089337;28;20191;-72
2021/05/19 01:16:10;;;;;;;0.10;0.10;;;10.30;99.90;;;;;;5088555;28;20192;-72
2021/05/19 01:18:40;;;;;;;0.10;0.10;;;10.30;99.90;;;;;;5089633;28;20152;-71
2021/05/19 01:21:07;;;;;;;0.00;0.00;;;10.20;99.90;;;;;;5086045;28;20215;-72
2021/05/19 01:23:33;;;;;;;0.35;0.35;;;10.10;99.90;;;;;;5087878;28;20172;-71
2021/05/19 01:26:07;;;;;;;0.10;0.10;;;10.10;99.90;;;;;;5088049;28;20247;-71
2021/05/19 01:28:33;;;;;;;0.00;0.00;;;10.20;99.90;;;;;;5088163;28;20194;-71
2021/05/19 01:31:00;;;;;;;0.10;0.10;;;10.20;99.90;;;;;;5089553;28;20188;-71
2021/05/19 01:33:26;;;;;;;0.10;0.10;;;10.20;99.90;;;;;;5089013;28;20160;-71
2021/05/19 01:35:52;;;;;;;0.10;0.10;;;10.10;99.90;;;;;;5089382;28;20160;-71
2021/05/19 01:38:18;;;;;;;0.10;0.10;;;10.00;99.90;;;;;;5087975;28;20183;-71
2021/05/19 01:40:44;;;;;;;0.10;0.10;;;9.90;99.90;;;;;;5092409;28;20284;-71
2021/05/19 01:43:10;;;;;;;0.10;0.10;;;9.80;99.90;;;;;;5091397;28;20200;-71
2021/05/19 01:45:37;;;;;;;0.10;0.10;;;9.70;99.90;;;;;;5090706;28;20631;-70
2021/05/19 01:48:05;;;;;;;0.10;0.10;;;9.70;99.90;;;;;;5109331;28;20178;-70
2021/05/19 01:50:35;;;;;;;0.10;0.10;;;9.60;99.90;;;;;;5109449;28;20183;-71
2021/05/19 01:53:03;;;;;;;0.10;0.10;;;9.60;99.90;;;;;;5109495;28;20156;-71
2021/05/19 01:55:30;;;;;;;0.10;0.10;;;9.60;99.90;;;;;;5109436;28;20162;-71
2021/05/19 01:57:56;;;;;;;0.00;0.00;;;9.50;99.90;;;;;;5109321;28;20245;-70
2021/05/19 02:00:25;;;;;;;0.00;0.00;;;9.50;99.90;;;;;;5109273;28;20199;-70
2021/05/19 02:03:03;;;;;;;1.00;0.55;;;9.50;99.90;;;;;;5109273;28;20162;-71
2021/05/19 02:05:30;;;;;;;0.00;0.00;;;9.50;99.90;;;;;;5090901;28;20171;-70
2021/05/19 02:07:57;;;;;;;1.55;1.08;;;9.60;99.90;;;;;;5109056;28;20167;-71
2021/05/19 02:10:24;;;;;;;0.00;0.00;;;9.50;99.90;;;;;;5091093;28;20194;-70
2021/05/19 02:12:50;;;;;;;0.00;0.00;;;9.50;99.90;;;;;;5109402;28;20164;-70
2021/05/19 02:15:17;;;;;;;0.10;0.10;;;9.50;99.90;;;;;;5109078;28;20155;-70
2021/05/19 02:17:44;;;;;;;0.00;0.00;;;9.50;99.90;;;;;;5109186;28;20187;-70
2021/05/19 02:20:12;;;;;;;0.10;0.10;;;9.50;99.90;;;;;;5108902;28;20191;-70
2021/05/19 02:22:39;;;;;;;0.10;0.10;;;9.40;99.90;;;;;;5109258;28;20155;-70
2021/05/19 02:25:06;;;;;;;0.00;0.00;;;9.40;99.90;;;;;;5109075;28;20163;-70
2021/05/19 02:27:33;;;;;;;0.08;0.08;;;9.50;99.90;;;;;;5090889;28;20546;-70
2021/05/19 02:29:59;;;;;;;0.10;0.10;;;9.60;99.90;;;;;;5108940;28;20254;-71
2021/05/19 02:32:26;;;;;;;0.00;0.00;;;9.50;99.90;;;;;;5090863;28;20159;-71
2021/05/19 02:34:52;;;;;;;0.13;0.13;;;9.50;99.90;;;;;;5108742;28;20691;-70
2021/05/19 02:37:19;;;;;;;0.10;0.10;;;9.60;99.90;;;;;;5108835;28;20290;-70
2021/05/19 02:39:45;;;;;;;0.00;0.00;;;9.50;99.90;;;;;;5112082;28;20200;-71
2021/05/19 02:42:11;;;;;;;0.00;0.00;;;9.60;99.90;;;;;;5094454;28;20290;-70
2021/05/19 02:44:36;;;;;;;0.20;0.20;;;9.70;99.90;;;;;;5094512;28;20195;-70
2021/05/19 02:47:03;;;;;;;0.08;0.08;;;9.70;99.90;;;;;;5112636;28;20585;-71
2021/05/19 02:49:30;;;;;;;0.03;0.03;;;9.70;99.90;;;;;;5094608;28;20160;-71
2021/05/19 02:51:56;;;;;;;0.08;0.08;;;9.60;99.90;;;;;;5112983;28;20155;-71
2021/05/19 02:54:22;;;;;;;0.10;0.10;;;9.70;99.90;;;;;;5112766;28;20176;-71
2021/05/19 02:56:49;;;;;;;0.25;0.25;;;9.70;99.90;;;;;;5094455;28;20214;-71
2021/05/19 02:59:15;;;;;;;0.10;0.10;;;9.70;99.90;;;;;;5094270;28;20170;-70
2021/05/19 03:01:42;;;;;;;0.20;0.20;;;9.70;99.90;;;;;;5112594;28;20151;-71
2021/05/19 03:04:08;;;;;;;0.10;0.10;;;9.70;99.90;;;;;;5112695;28;20175;-70
2021/05/19 03:06:34;;;;;;;0.10;0.10;;;9.70;99.90;;;;;;5112306;28;20203;-70
2021/05/19 03:09:01;;;;;;;0.10;0.10;;;9.80;99.90;;;;;;5112425;28;20160;-70
2021/05/19 03:11:27;;;;;;;0.10;0.10;;;9.70;99.90;;;;;;5112601;28;20167;-70
2021/05/19 03:13:52;;;;;;;0.00;0.00;;;9.70;99.90;;;;;;5112617;28;20185;-70
2021/05/19 03:16:19;;;;;;;0.00;0.00;;;9.70;99.90;;;;;;5112428;28;20202;-70
2021/05/19 03:18:45;;;;;;;0.00;0.00;;;9.70;99.90;;;;;;5112403;28;20159;-70
2021/05/19 03:21:11;;;;;;;0.00;0.00;;;9.60;99.90;;;;;;5112548;28;20185;-70
2021/05/19 03:23:37;;;;;;;0.17;0.17;;;9.60;99.90;;;;;;5112522;28;20181;-70
2021/05/19 03:26:04;;;;;;;0.10;0.10;;;9.50;99.90;;;;;;5112190;28;20195;-69
2021/05/19 03:28:30;;;;;;;0.05;0.05;;;9.50;99.90;;;;;;5111976;28;20159;-71
2021/05/19 03:30:56;;;;;;;0.10;0.10;;;9.50;99.90;;;;;;5112123;28;20673;-70
2021/05/19 03:33:22;;;;;;;0.10;0.10;;;9.40;99.90;;;;;;5112386;28;20164;-70
2021/05/19 03:35:48;;;;;;;0.10;0.10;;;9.40;99.90;;;;;;5092966;28;20191;-70
2021/05/19 03:38:15;;;;;;;0.17;0.17;;;9.30;99.90;;;;;;5094020;28;20164;-70
2021/05/19 03:40:42;;;;;;;0.00;0.00;;;9.30;99.90;;;;;;5111769;28;20231;-70
2021/05/19 03:43:08;;;;;;;0.00;0.00;;;9.30;99.90;;;;;;5111993;28;20167;-70
2021/05/19 03:45:34;;;;;;;0.10;0.10;;;9.30;99.90;;;;;;5111791;28;20191;-70
2021/05/19 03:48:01;;;;;;;0.00;0.00;;;9.30;99.90;;;;;;5093168;28;20178;-70
2021/05/19 03:50:29;;;;;;;0.00;0.00;;;9.30;99.90;;;;;;5110604;28;20567;-70
2021/05/19 03:52:59;;;;;;;0.00;0.00;;;9.30;99.90;;;;;;5111860;28;20197;-70
2021/05/19 03:55:25;;;;;;;0.10;0.10;;;9.30;99.90;;;;;;5111559;28;20191;-70
2021/05/19 03:57:51;;;;;;;0.10;0.10;;;9.40;99.90;;;;;;5111567;28;20183;-70
2021/05/19 04:00:35;;;;;;;0.08;0.08;;;9.40;99.90;;;;;;5093165;28;20168;-71
2021/05/19 04:03:03;;;;;;;0.00;0.00;;;9.30;99.90;;;;;;5111673;28;20230;-71
2021/05/19 04:05:33;;;;;;;0.10;0.10;;;9.30;99.90;;;;;;5093107;28;20191;-70
2021/05/19 04:08:00;;;;;;;0.00;0.00;;;9.40;99.90;;;;;;5111216;28;20180;-71
2021/05/19 04:10:26;;;;;;;0.20;0.20;;;9.30;99.90;;;;;;5111349;28;20156;-70
2021/05/19 04:12:53;;;;;;;0.30;0.30;;;9.30;99.90;;;;;;5093139;28;20171;-69
2021/05/19 04:15:21;;;;;;;0.10;0.10;;;9.30;99.90;;;;;;5093161;28;20199;-71
2021/05/19 04:17:48;;;;;;;0.00;0.00;;;9.30;99.90;;;;;;5093158;28;20195;-70
2021/05/19 04:20:15;;;;;;;0.05;0.05;;;9.40;99.90;;;;;;5111328;28;20174;-70
2021/05/19 04:22:42;;;;;;;0.10;0.10;;;9.30;99.90;;;;;;5110902;28;20159;-71
2021/05/19 04:25:09;;;;;;;0.10;0.10;;;9.30;99.90;;;;;;5092794;28;20219;-71
2021/05/19 04:27:35;;;;;;;0.10;0.10;;;9.30;99.90;;;;;;5092284;28;20235;-71
2021/05/19 04:30:01;;;;;;;0.10;0.10;;;9.30;99.90;;;;;;5110905;28;20189;-71
2021/05/19 04:32:27;;;;;;;0.10;0.10;;;9.20;99.90;;;;;;5092803;28;20171;-70
2021/05/19 04:34:53;;;;;;;0.00;0.00;;;9.20;99.90;;;;;;5110972;28;20265;-71
2021/05/19 04:37:19;;;;;;;0.10;0.10;;;9.10;99.90;;;;;;5092732;28;20219;-71
2021/05/19 04:39:45;;;;;;;0.10;0.10;;;9.10;99.90;;;;;;5110757;28;20178;-71
2021/05/19 04:42:11;;;;;;;0.00;0.00;;;9.10;99.90;;;;;;5110517;28;20230;-71
2021/05/19 04:44:37;;;;;;;0.10;0.10;;;9.10;99.90;;;;;;5110711;28;20209;-71
2021/05/19 04:47:03;;;;;;;0.10;0.10;;;9.10;99.90;;;;;;5092057;28;20159;-70
2021/05/19 04:49:29;;;;;;;0.10;0.10;;;9.20;99.90;;;;;;5110543;28;20155;-70
2021/05/19 04:51:55;;;;;;;0.10;0.10;;;9.20;99.90;;;;;;5110694;28;20701;-71
2021/05/19 04:54:21;;;;;;;0.10;0.10;;;9.20;99.90;;;;;;5110330;28;20179;-71
2021/05/19 04:56:47;;;;;;;0.47;0.47;;;9.10;99.90;;;;;;5092426;28;20194;-71
2021/05/19 04:59:13;;;;;;;0.10;0.10;;;9.00;99.90;;;;;;5091718;28;20156;-70
2021/05/19 05:01:39;;;;;;;0.00;0.00;;;9.10;99.90;;;;;;5109948;28;20171;-70
2021/05/19 05:04:05;;;;;;;0.15;0.15;;;9.20;99.90;;;;;;5110043;28;20645;-70
2021/05/19 05:06:31;;;;;;;0.08;0.08;;;9.30;99.90;;;;;;5091772;28;20191;-70
2021/05/19 05:08:57;;;;;;;0.13;0.05;;;9.40;99.90;;;;;;5091556;28;20163;-70
2021/05/19 05:11:22;;;;;;;0.10;0.10;;;9.20;99.90;;;;;;5109764;28;20174;-70
2021/05/19 05:13:49;;;;;;;0.10;0.10;;;9.30;99.90;;;;;;5109794;28;20155;-70
2021/05/19 05:16:16;;;;;;;0.00;0.00;;;9.40;99.90;;;;;;5110037;28;20260;-70
2021/05/19 05:18:43;;;;;;;0.10;0.10;;;9.30;99.90;;;;;;5091789;28;20168;-70
2021/05/19 05:21:11;;;;;;;0.10;0.10;;;9.30;99.90;;;;;;5109529;28;20499;-70
2021/05/19 05:23:37;;;;;;;1.10;1.00;;;9.50;99.90;;;;;;5091560;28;20630;-70
2021/05/19 05:26:03;;;;;;;0.00;0.00;;;9.50;99.90;;;;;;5109812;28;20191;-70
2021/05/19 05:28:30;;;;;;;0.00;0.00;;;9.60;99.90;;;;;;5091404;28;20179;-70
2021/05/19 05:30:56;;;;;;;0.05;0.05;;;9.60;99.90;;;;;;5109879;28;20242;-71
2021/05/19 05:33:23;;;;;;;0.10;0.10;;;9.80;99.90;;;;;;5109592;28;20158;-70
2021/05/19 05:35:49;;;;;;;0.00;0.00;;;9.80;99.90;;;;;;5108936;28;20195;-70
2021/05/19 05:38:15;;;;;;;0.00;0.00;;;9.80;99.90;;;;;;5109539;28;20165;-70
2021/05/19 05:40:41;;;;;;;0.10;0.10;;;9.90;99.90;;;;;;5109125;28;20218;-70
2021/05/19 05:43:07;;;;;;;0.20;0.20;;;10.00;99.90;;;;;;5108702;28;20721;-70
2021/05/19 05:45:33;;;;;;;0.10;0.10;;;10.00;99.90;;;;;;5109473;28;20190;-70
2021/05/19 05:47:59;;;;;;;0.10;0.10;;;10.10;99.90;;;;;;5091160;28;20553;-70
2021/05/19 05:50:25;;;;;;;0.00;0.00;;;10.10;99.90;;;;;;5109107;28;20170;-69
2021/05/19 05:52:52;;;;;;;0.10;0.10;;;10.00;99.90;;;;;;5109547;28;20220;-70
2021/05/19 05:55:22;;;;;;;0.10;0.10;;;10.00;99.90;;;;;;5109366;28;20217;-70
2021/05/19 05:57:51;;;;;;;0.10;0.10;;;10.00;99.90;;;;;;5109115;28;20274;-70
2021/05/19 06:00:18;;;;;;;0.00;0.00;;;9.90;99.90;;;;;;5109397;28;20159;-70
2021/05/19 06:02:44;;;;;;;0.20;0.20;;;10.00;99.90;;;;;;5090909;28;20222;-70
2021/05/19 06:05:12;;;;;;;0.00;0.00;;;10.20;99.90;;;;;;5091062;28;20199;-71
2021/05/19 06:07:38;;;;;;;0.10;0.10;;;9.90;99.90;;;;;;5090913;28;20177;-70
2021/05/19 06:10:05;;;;;;;0.10;0.10;;;10.00;99.90;;;;;;5108979;28;20214;-70
2021/05/19 06:12:31;;;;;;;0.05;0.05;;;10.10;99.90;;;;;;5108945;28;20164;-70
2021/05/19 06:14:57;;;;;;;0.10;0.10;;;10.20;99.90;;;;;;5108699;28;20187;-70
2021/05/19 06:17:24;;;;;;;0.10;0.10;;;10.20;99.90;;;;;;5108926;28;20187;-70
2021/05/19 06:19:50;;;;;;;0.00;0.00;;;10.30;99.90;;;;;;5109386;28;20159;-69
2021/05/19 06:22:17;;;;;;;0.28;0.28;;;10.40;99.90;;;;;;5109254;28;20494;-71
2021/05/19 06:24:43;;;;;;;0.10;0.10;;;10.50;99.90;;;;;;5109009;28;20202;-68
2021/05/19 06:27:10;;;;;;;0.10;0.10;;;10.70;99.90;;;;;;5108507;28;20159;-70
2021/05/19 06:29:36;;;;;;;0.00;0.00;;;10.80;99.90;;;;;;5089388;28;20194;-69
2021/05/19 06:32:02;;;;;;;0.10;0.10;;;10.90;99.90;;;;;;5109164;28;20155;-70
2021/05/19 06:34:28;;;;;;;0.10;0.10;;;11.00;99.90;;;;;;5109023;28;20179;-70
2021/05/19 06:36:53;;;;;;;0.10;0.10;;;11.10;99.90;;;;;;5108483;28;20199;-71
2021/05/19 06:39:22;;;;;;;0.10;0.10;;;11.10;99.90;;;;;;5108895;28;20155;-70
2021/05/19 06:41:48;;;;;;;0.10;0.10;;;11.00;99.90;;;;;;5108849;28;20250;-70
2021/05/19 06:44:16;;;;;;;0.50;0.45;;;11.00;99.90;;;;;;5109003;28;20186;-70
2021/05/19 06:46:43;;;;;;;0.20;0.20;;;10.90;99.90;;;;;;5090826;28;20698;-70
2021/05/19 06:49:11;;;;;;;0.10;0.10;;;10.90;99.90;;;;;;5108494;28;20156;-70
2021/05/19 06:51:38;;;;;;;0.75;0.30;;;11.00;99.90;;;;;;5108917;28;20650;-70
2021/05/19 06:54:05;;;;;;;0.10;0.10;;;11.20;99.90;;;;;;5090582;28;20167;-70
2021/05/19 06:56:31;;;;;;;0.00;0.00;;;11.20;99.90;;;;;;5107712;28;20243;-71
2021/05/19 06:58:57;;;;;;;0.08;0.08;;;11.30;99.90;;;;;;5108711;28;20651;-71
2021/05/19 07:01:23;;;;;;;7.97;1.40;;;11.10;99.90;;;;;;5108543;28;20159;-71
2021/05/19 07:03:49;;;;;;;0.30;0.30;;;10.90;99.90;;;;;;5108943;28;20185;-70
2021/05/19 07:06:19;;;;;;;0.10;0.10;;;10.90;99.90;;;;;;5108471;28;20218;-71
2021/05/19 07:08:45;;;;;;;1.20;1.05;;;10.90;99.90;;;;;;5108390;28;20148;-71
2021/05/19 07:11:11;;;;;;;0.10;0.10;;;10.80;99.90;;;;;;5108679;28;20183;-70
2021/05/19 07:13:37;;;;;;;0.30;0.30;;;10.80;99.90;;;;;;5108631;28;20159;-71
2021/05/19 07:16:04;;;;;;;0.00;0.00;;;10.80;99.90;;;;;;5108408;28;20230;-72
2021/05/19 07:18:30;;;;;;;0.35;0.35;;;10.90;99.90;;;;;;5108696;28;20167;-71
2021/05/19 07:20:56;;;;;;;0.10;0.10;;;10.80;99.90;;;;;;5090458;28;20233;-71
2021/05/19 07:23:23;;;;;;;0.05;0.05;;;10.90;99.90;;;;;;5108507;28;20155;-71
2021/05/19 07:25:49;;;;;;;0.20;0.20;;;10.90;99.90;;;;;;5092925;28;20202;-70
2021/05/19 07:28:16;;;;;;;0.30;0.20;;;11.00;99.90;;;;;;5093751;28;20168;-70
2021/05/19 07:30:44;;;;;;;0.00;0.00;;;10.80;99.90;;;;;;5111696;28;20183;-71
2021/05/19 07:33:11;;;;;;;0.30;0.30;;;10.70;99.90;;;;;;5092748;28;20175;-70
2021/05/19 07:35:38;;;;;;;0.05;0.05;;;10.70;99.90;;;;;;5093699;28;20187;-71
2021/05/19 07:38:08;;;;;;;0.10;0.10;;;10.80;99.90;;;;;;5112154;28;20194;-70
2021/05/19 07:40:35;;;;;;;0.00;0.00;;;10.90;99.90;;;;;;5111816;28;20166;-71
2021/05/19 07:43:01;;;;;;;0.10;0.10;;;11.00;99.90;;;;;;5111883;28;20171;-71
2021/05/19 07:45:28;;;;;;;0.70;0.70;;;11.00;99.90;;;;;;5093644;28;20231;-71
2021/05/19 07:47:54;;;;;;;0.00;0.00;;;10.90;99.90;;;;;;5111582;28;20194;-71
2021/05/19 07:50:21;;;;;;;0.17;0.17;;;11.00;99.90;;;;;;5111683;28;20189;-71
2021/05/19 07:52:47;;;;;;;0.00;0.00;;;11.10;99.90;;;;;;5111298;28;20174;-71
2021/05/19 07:56:02;;;;;;;0.10;0.10;;;11.30;99.90;;;;;;5101696;28;20238;-71
2021/05/19 07:58:08;;;;;;;0.13;0.13;;;11.50;99.90;;;;;;5103086;28;20282;-72
2021/05/19 08:03:01;;;;;;;0.55;0.43;;;11.90;99.90;;;;;;5110881;28;20159;-71
2021/05/19 08:05:26;;;;;;;0.10;0.10;;;12.00;99.90;;;;;;5092644;28;20268;-71
2021/05/19 08:07:52;;;;;;;0.15;0.15;;;12.00;99.90;;;;;;5111111;28;20151;-71
2021/05/19 08:10:18;;;;;;;1.05;0.85;;;11.90;99.90;;;;;;5110471;28;20181;-71
2021/05/19 08:12:44;;;;;;;0.38;0.38;;;11.90;99.90;;;;;;5110794;28;20206;-71
2021/05/19 08:15:10;;;;;;;0.00;0.00;;;11.90;99.90;;;;;;5110698;28;20274;-71
2021/05/19 08:17:36;;;;;;;0.10;0.10;;;12.00;99.90;;;;;;5092673;28;20753;-71
2021/05/19 08:20:04;;;;;;;0.08;0.08;;;12.10;99.90;;;;;;5092823;28;20171;-71
2021/05/19 08:22:30;;;;;;;0.00;0.00;;;12.30;99.90;;;;;;5107843;28;20218;-71
2021/05/19 08:24:56;;;;;;;0.30;0.30;;;12.50;99.90;;;;;;5110749;28;20172;-69
2021/05/19 08:27:22;;;;;;;0.10;0.10;;;12.70;99.90;;;;;;5110867;28;20164;-69
2021/05/19 08:29:48;;;;;;;0.00;0.00;;;12.90;99.90;;;;;;5110516;28;20176;-71
2021/05/19 08:32:14;;;;;;;0.10;0.10;;;12.90;99.90;;;;;;5092264;28;20663;-70
2021/05/19 08:34:41;;;;;;;0.00;0.00;;;12.90;99.90;;;;;;5110826;28;20152;-72
2021/05/19 08:37:07;;;;;;;0.52;0.25;;;13.10;99.90;;;;;;5091575;28;20214;-72
2021/05/19 08:39:33;;;;;;;0.00;0.00;;;13.00;99.90;;;;;;5110250;28;20199;-71
2021/05/19 08:42:00;;;;;;;0.00;0.00;;;13.20;99.90;;;;;;5091858;28;20326;-71
2021/05/19 08:44:25;;;;;;;0.15;0.15;;;12.80;99.90;;;;;;5110446;28;20159;-71
2021/05/19 08:46:56;;;;;;;1.13;0.50;;;12.50;99.90;;;;;;5110298;28;20181;-71
2021/05/19 08:49:22;;;;;;;0.10;0.10;;;12.50;99.90;;;;;;5110345;28;20220;-71
2021/05/19 08:51:49;;;;;;;0.10;0.10;;;12.60;99.90;;;;;;5110062;28;20218;-71
2021/05/19 08:54:17;;;;;;;0.00;0.00;;;12.30;99.90;;;;;;5110333;28;20168;-71
2021/05/19 08:56:48;;;;;;;0.10;0.10;;;12.30;99.90;;;;;;5091696;28;20190;-71
2021/05/19 08:59:15;;;;;;;0.43;0.43;;;12.50;99.90;;;;;;5110235;28;20642;-71
2021/05/19 09:01:45;;;;;;;0.10;0.10;;;12.40;99.90;;;;;;5110021;28;20620;-71
2021/05/19 09:04:21;;;;;;;0.20;0.20;;;12.40;99.90;;;;;;5091795;28;20163;-71
2021/05/19 09:06:54;;;;;;;24.83;1.27;;;12.40;99.90;;;;;;5091709;28;20205;-71
2021/05/19 09:09:21;;;;;;;0.10;0.10;;;12.50;99.90;;;;;;5109860;28;20179;-71
2021/05/19 09:12:05;;;;;;;0.10;0.10;;;12.40;99.90;;;;;;5109623;28;20167;-71
2021/05/19 09:14:33;;;;;;;0.00;0.00;;;12.50;99.90;;;;;;5109930;28;20212;-71
2021/05/19 09:17:17;;;;;;;0.10;0.10;;;12.30;99.90;;;;;;5109498;28;20206;-71
2021/05/19 09:19:43;;;;;;;0.20;0.20;;;12.50;99.90;;;;;;5109986;28;20162;-71
2021/05/19 09:22:17;;;;;;;0.20;0.20;;;12.50;99.90;;;;;;5091321;28;20252;-71
2021/05/19 09:24:42;;;;;;;0.10;0.10;;;12.50;99.90;;;;;;5093338;28;20187;-71
2021/05/19 09:27:08;;;;;;;0.25;0.17;;;12.50;99.90;;;;;;5089292;28;20152;-71
2021/05/19 09:29:39;;;;;;;0.00;0.00;;;12.50;99.90;;;;;;5071216;28;20198;-70
2021/05/19 09:32:14;;;;;;;0.10;0.10;;;12.60;99.90;;;;;;5107467;28;20286;-71
2021/05/19 09:34:42;;;;;;;0.20;0.20;;;12.30;99.90;;;;;;5091343;28;20167;-71
2021/05/19 09:37:11;;;;;;;0.20;0.20;;;12.50;99.90;;;;;;5091012;28;20191;-71
2021/05/19 09:40:02;;;;;;;0.13;0.13;;;12.60;99.90;;;;;;5091159;28;20170;-71
2021/05/19 09:42:49;;;;;;;0.00;0.00;;;12.60;99.90;;;;;;5109242;28;20230;-71
2021/05/19 09:45:24;;;;;;;0.10;0.10;;;12.60;99.90;;;;;;5109342;28;20167;-71
2021/05/19 09:47:52;;;;;;;0.08;0.08;;;12.70;99.90;;;;;;5107290;28;20167;-71
2021/05/19 09:50:21;;;;;;;0.10;0.10;;;12.80;99.90;;;;;;5109163;28;20216;-71
2021/05/19 09:53:10;;;;;;;0.10;0.10;;;13.00;99.90;;;;;;5108336;28;20190;-71
2021/05/19 09:55:38;;;;;;;0.10;0.10;;;13.20;99.90;;;;;;5109008;28;20152;-71
2021/05/19 09:58:08;;;;;;;0.10;0.10;;;13.30;99.90;;;;;;5108889;28;20597;-71
2021/05/19 10:00:34;;;;;;;0.10;0.10;;;13.50;99.90;;;;;;5109178;28;20208;-71
2021/05/19 10:03:01;;;;;;;0.32;0.32;;;13.70;99.90;;;;;;5109475;28;20499;-71
2021/05/19 10:07:55;;;;;;;0.10;0.10;;;14.20;99.90;;;;;;5109356;28;20167;-71
2021/05/19 10:10:25;;;;;;;0.90;0.32;;;14.40;99.90;;;;;;5108933;28;20191;-71
2021/05/19 10:12:52;;;;;;;0.20;0.20;;;14.50;99.90;;;;;;5091006;28;20535;-71
2021/05/19 10:15:29;;;;;;;0.43;0.43;;;14.60;99.90;;;;;;5109221;28;20634;-71
2021/05/19 10:18:16;;;;;;;0.55;0.55;;;14.80;99.90;;;;;;5091124;28;20201;-69
2021/05/19 10:20:45;;;;;;;0.10;0.10;;;14.90;99.90;;;;;;5090971;28;20159;-71
2021/05/19 10:23:14;;;;;;;0.20;0.20;;;14.90;99.90;;;;;;5090871;28;20170;-71
2021/05/19 10:25:42;;;;;;;0.10;0.10;;;14.90;99.90;;;;;;5108368;28;20171;-70
2021/05/19 10:28:13;;;;;;;1.38;0.60;;;15.10;99.90;;;;;;5101061;28;20304;-70
2021/05/19 10:30:50;;;;;;;0.10;0.10;;;15.30;99.90;;;;;;5094422;28;20178;-70
2021/05/19 10:33:37;;;;;;;0.25;0.25;;;15.40;99.90;;;;;;5090758;28;20159;-70
2021/05/19 10:36:25;;;;;;;0.10;0.10;;;15.40;99.90;;;;;;5093063;28;20194;-71
2021/05/19 10:39:11;;;;;;;0.08;0.08;;;15.10;99.90;;;;;;5070593;28;20164;-70
2021/05/19 10:41:52;;;;;;;0.10;0.10;;;14.80;99.90;;;;;;5088602;28;20215;-70
2021/05/19 10:44:35;;;;;;;1.20;1.05;;;15.00;99.90;;;;;;5083425;28;20234;-71
2021/05/19 10:47:10;;;;;;;1.23;1.00;;;15.00;99.90;;;;;;5108649;28;20187;-71
2021/05/19 10:49:56;;;;;;;0.10;0.10;;;15.00;99.90;;;;;;5108714;28;20162;-71
2021/05/19 10:57:59;;;;;;;0.10;0.10;;;15.80;99.90;;;;;;5108633;28;20210;-71
2021/05/19 11:00:26;;;;;;;0.10;0.10;;;15.40;99.90;;;;;;5105946;28;20188;-71
2021/05/19 11:02:57;;;;;;;0.10;0.10;;;15.10;99.90;;;;;;5073868;28;20164;-71
2021/05/19 11:05:34;;;;;;;0.77;0.77;;;14.80;99.90;;;;;;5092142;28;20152;-71
2021/05/19 11:08:05;;;;;;;0.20;0.20;;;14.90;99.90;;;;;;5092078;28;20222;-70
2021/05/19 11:10:32;;;;;;;0.10;0.10;;;14.60;99.90;;;;;;5091999;28;20250;-70
2021/05/19 11:12:59;;;;;;;0.10;0.10;;;14.10;99.90;;;;;;5092021;28;20649;-71
2021/05/19 11:20:59;;;;;;;0.00;0.00;;;14.20;99.90;;;;;;5109604;28;20186;-71
2021/05/19 11:23:26;;;;;;;0.10;0.10;;;14.00;99.90;;;;;;5073557;28;20227;-71
2021/05/19 11:26:13;;;;;;;2.65;0.75;;;13.90;99.90;;;;;;5091598;28;20156;-71
2021/05/19 11:28:40;;;;;;;1.67;0.35;;;13.80;99.90;;;;;;5109882;28;20553;-71
2021/05/19 11:31:15;;;;;;;0.10;0.10;;;13.80;99.90;;;;;;5110736;28;20243;-71
2021/05/19 11:33:59;;;;;;;0.10;0.10;;;13.80;99.90;;;;;;5093475;28;20238;-71
2021/05/19 11:36:41;;;;;;;0.22;0.22;;;14.20;99.90;;;;;;5097061;28;20282;-72
2021/05/19 11:39:28;;;;;;;0.10;0.10;;;14.40;99.90;;;;;;5092999;28;20271;-72
2021/05/19 11:42:23;;;;;;;0.10;0.10;;;14.20;99.90;;;;;;5111263;28;20229;-70
2021/05/19 11:44:55;;;;;;;0.10;0.10;;;14.50;99.90;;;;;;5093143;28;20172;-70
2021/05/19 11:47:22;;;;;;;0.32;0.32;;;14.90;99.90;;;;;;5111204;28;20285;-71
2021/05/19 11:50:02;;;;;;;0.05;0.05;;;15.10;99.90;;;;;;5093357;28;20163;-71
2021/05/19 11:53:09;;;;;;;0.03;0.03;;;15.30;99.90;;;;;;5111382;28;20171;-71
2021/05/19 11:55:52;;;;;;;0.10;0.10;;;15.10;99.90;;;;;;5009130;28;20245;-70
2021/05/19 11:58:34;;;;;;;0.10;0.10;;;14.70;99.90;;;;;;5009247;28;20225;-71
2021/05/19 12:01:05;;;;;;;0.10;0.10;;;14.80;99.90;;;;;;5019650;28;20174;-71
2021/05/19 12:03:33;;;;;;;0.10;0.10;;;15.50;99.90;;;;;;5012374;28;20166;-71
2021/05/19 12:06:10;;;;;;;0.13;0.13;;;15.30;99.90;;;;;;5011801;28;20186;-71
2021/05/19 12:08:40;;;;;;;0.10;0.10;;;15.00;99.90;;;;;;5009147;28;20170;-71
2021/05/19 12:11:16;;;;;;;0.95;0.43;;;15.10;99.90;;;;;;5007985;28;20250;-72
2021/05/19 12:13:55;;;;;;;0.60;0.28;;;15.00;99.90;;;;;;5009163;28;20166;-71
2021/05/19 12:16:41;;;;;;;0.10;0.10;;;15.00;99.90;;;;;;5008553;28;20224;-71
2021/05/19 12:19:11;;;;;;;0.57;0.45;;;15.30;99.90;;;;;;5009156;28;20214;-71
2021/05/19 12:21:38;;;;;;;0.52;0.52;;;15.40;99.90;;;;;;4992775;28;20166;-71
2021/05/19 12:24:06;;;;;;;0.10;0.10;;;15.90;99.90;;;;;;5008948;28;20175;-71
2021/05/19 12:26:35;;;;;;;0.05;0.05;;;16.00;99.90;;;;;;5008842;28;20240;-71
2021/05/19 12:29:01;;;;;;;0.10;0.10;;;16.30;99.90;;;;;;5009012;28;20167;-71
2021/05/19 12:31:35;;;;;;;0.30;0.30;;;16.60;99.90;;;;;;5077987;28;20191;-71
2021/05/19 12:34:15;;;;;;;0.80;0.80;;;16.70;99.90;;;;;;5090498;28;20186;-72
2021/05/19 12:36:41;;;;;;;0.10;0.10;;;16.90;99.90;;;;;;5091963;28;20206;-71
2021/05/19 12:39:08;;;;;;;0.10;0.10;;;16.70;99.90;;;;;;5110563;28;20160;-71
2021/05/19 12:41:45;;;;;;;0.10;0.10;;;16.60;99.90;;;;;;5110356;28;20210;-71
2021/05/19 12:44:17;;;;;;;0.25;0.25;;;16.80;99.90;;;;;;5097879;28;20215;-71
2021/05/19 12:46:56;;;;;;;0.10;0.10;;;16.70;99.90;;;;;;5087858;28;20160;-72
2021/05/19 12:49:22;;;;;;;0.20;0.10;;;16.70;99.90;;;;;;5090157;28;20168;-71
2021/05/19 12:51:59;;;;;;;3.13;0.55;;;16.60;99.90;;;;;;5100429;28;20254;-71
2021/05/19 12:54:34;;;;;;;0.75;0.17;;;16.40;99.90;;;;;;5110122;28;20165;-71
2021/05/19 12:57:03;;;;;;;0.13;0.13;;;16.60;99.90;;;;;;5110191;28;20187;-71
2021/05/19 12:59:48;;;;;;;0.10;0.10;;;16.70;99.90;;;;;;5109693;28;20163;-70
2021/05/19 13:02:14;;;;;;;0.95;0.60;;;16.10;99.90;;;;;;5109990;28;20246;-70
2021/05/19 13:04:49;;;;;;;1.27;1.17;;;15.20;99.90;;;;;;5107878;28;20195;-71
2021/05/19 13:07:20;;;;;;;0.10;0.10;;;14.80;99.90;;;;;;5109931;28;20190;-70
2021/05/19 13:09:50;;;;;;;0.30;0.30;;;14.60;99.90;;;;;;5091778;28;20190;-70
2021/05/19 13:12:24;;;;;;;0.10;0.10;;;14.50;99.90;;;;;;5109649;28;20155;-70
2021/05/19 13:14:54;;;;;;;0.20;0.20;;;14.40;99.90;;;;;;5109777;28;20232;-70
2021/05/19 13:17:46;;;;;;;0.25;0.25;;;14.20;99.90;;;;;;5109382;28;20210;-70
2021/05/19 13:20:21;;;;;;;0.25;0.25;;;14.00;99.90;;;;;;5090261;28;20659;-71